Time;durP1;ratioP1;P1;durP2;ratioP2;P2;SDS_P1;SDS_P2;PMS_P1;PMS_P2;Temp;Humidity;BMP_temperature;BMP_pressure;BME280_temperature;BME280_humidity;BME280_pressure;Samples;Min_cycle;Max_cycle;Signal;HPM_P1;HPM_P2
2022/03/21 00:02:20;;;;;;;13.57;7.05;;;;;;;2.98;89.02;102234.09;6007644;29;20516;-92
2022/03/21 00:05:22;;;;;;;9.73;6.72;;;;;;;2.95;87.66;102231.59;5987346;29;20080;-91
2022/03/21 00:08:24;;;;;;;11.70;7.47;;;;;;;2.89;90.06;102226.63;5993780;29;20054;-92
2022/03/21 00:11:26;;;;;;;12.48;8.45;;;;;;;2.86;91.49;102221.53;6010867;29;20045;-91
2022/03/21 00:14:29;;;;;;;10.43;6.75;;;;;;;2.90;94.51;102223.16;5997465;29;20145;-92
2022/03/21 00:17:33;;;;;;;10.45;7.00;;;;;;;2.89;91.03;102222.34;5982137;29;20047;-92
2022/03/21 00:20:35;;;;;;;10.82;7.63;;;;;;;2.89;94.77;102224.06;5986621;29;20495;-92
2022/03/21 00:23:37;;;;;;;13.25;7.50;;;;;;;2.87;88.19;102228.34;6009260;29;20454;-92
2022/03/21 00:26:39;;;;;;;12.75;7.85;;;;;;;2.92;91.73;102229.09;6006718;29;20046;-92
2022/03/21 00:29:53;;;;;;;11.95;7.20;;;;;;;2.86;93.35;102226.66;5996291;29;20050;-92
2022/03/21 00:32:56;;;;;;;11.48;7.38;;;;;;;2.74;93.50;102231.13;5992781;29;20042;-92
2022/03/21 00:35:58;;;;;;;13.02;7.00;;;;;;;2.75;92.06;102230.25;5989671;29;20477;-92
2022/03/21 00:39:00;;;;;;;13.80;7.90;;;;;;;2.69;95.47;102232.94;5996886;29;20111;-92
2022/03/21 00:42:04;;;;;;;12.00;7.68;;;;;;;2.71;95.13;102230.38;5988456;29;20580;-92
2022/03/21 00:45:12;;;;;;;13.15;7.35;;;;;;;2.65;100.00;102233.84;6005465;29;20042;-92
2022/03/21 00:48:14;;;;;;;13.52;7.43;;;;;;;2.57;100.00;102236.56;6015070;29;20050;-91
2022/03/21 00:51:15;;;;;;;12.20;7.35;;;;;;;2.53;99.04;102228.97;6013592;29;20044;-92
2022/03/21 00:54:17;;;;;;;12.27;7.15;;;;;;;2.54;100.00;102238.34;6011988;29;20110;-92
2022/03/21 00:57:19;;;;;;;13.45;7.63;;;;;;;2.42;100.00;102231.72;6012467;29;20057;-92
2022/03/21 01:00:26;;;;;;;9.93;6.72;;;;;;;2.35;100.00;102240.34;6014421;29;20042;-92
2022/03/21 01:03:28;;;;;;;13.68;6.72;;;;;;;2.29;100.00;102236.22;6013399;29;20066;-92
2022/03/21 01:06:30;;;;;;;12.88;7.00;;;;;;;2.25;100.00;102228.59;6008051;29;20084;-92
2022/03/21 01:09:33;;;;;;;14.50;8.02;;;;;;;2.20;100.00;102227.84;6008412;29;20046;-92
2022/03/21 01:12:35;;;;;;;13.38;7.30;;;;;;;2.12;100.00;102226.25;5994632;29;20050;-92
2022/03/21 01:15:37;;;;;;;13.27;7.22;;;;;;;2.19;100.00;102231.25;5996908;29;20586;-92
2022/03/21 01:18:39;;;;;;;16.05;7.63;;;;;;;2.18;100.00;102227.84;6002999;29;20050;-92
2022/03/21 01:21:40;;;;;;;12.43;7.43;;;;;;;2.18;100.00;102235.53;6001141;29;20042;-92
2022/03/21 01:24:42;;;;;;;11.88;7.80;;;;;;;2.24;100.00;102232.88;6028853;29;20052;-92
2022/03/21 01:27:45;;;;;;;16.38;7.57;;;;;;;2.22;100.00;102236.34;6005992;29;20054;-92
2022/03/21 01:30:47;;;;;;;14.70;8.30;;;;;;;2.12;100.00;102241.59;6019643;29;20046;-92
2022/03/21 01:33:49;;;;;;;12.25;8.02;;;;;;;2.01;100.00;102233.22;6022907;29;20050;-92
2022/03/21 01:36:51;;;;;;;12.88;7.30;;;;;;;1.92;100.00;102234.22;6004156;29;20083;-92
2022/03/21 01:39:54;;;;;;;15.18;7.90;;;;;;;1.90;100.00;102230.03;6004117;29;20038;-92
2022/03/21 01:42:55;;;;;;;10.63;7.25;;;;;;;1.83;100.00;102236.09;6001171;29;20052;-92
2022/03/21 01:45:57;;;;;;;12.93;7.50;;;;;;;1.77;100.00;102228.53;6011423;29;20053;-92
2022/03/21 01:49:01;;;;;;;12.48;7.57;;;;;;;1.76;100.00;102230.22;6018285;29;20438;-92
2022/03/21 01:52:03;;;;;;;12.20;7.55;;;;;;;1.76;100.00;102231.94;6009090;29;20049;-92
2022/03/21 01:58:27;;;;;;;12.93;8.20;;;;;;;1.83;100.00;102224.16;6020781;29;20050;-92
2022/03/21 02:01:29;;;;;;;11.30;7.28;;;;;;;1.88;100.00;102230.03;6026253;29;20087;-92
2022/03/21 02:04:32;;;;;;;15.10;8.20;;;;;;;1.89;100.00;102229.19;6021453;29;20106;-92
2022/03/21 02:07:35;;;;;;;11.95;7.53;;;;;;;1.91;100.00;102222.34;6019199;29;20054;-92
2022/03/21 02:10:37;;;;;;;12.25;7.95;;;;;;;1.92;100.00;102228.28;6018184;29;20779;-92
2022/03/21 02:13:39;;;;;;;13.02;8.57;;;;;;;1.90;100.00;102225.75;6017433;29;20480;-92
2022/03/21 02:16:41;;;;;;;14.15;7.35;;;;;;;1.91;100.00;102217.25;6007431;29;20053;-91
2022/03/21 02:19:45;;;;;;;13.27;7.57;;;;;;;1.91;100.00;102219.78;6011798;29;20130;-92
2022/03/21 02:23:08;;;;;;;12.10;7.65;;;;;;;1.95;100.00;102223.13;5992325;29;20041;-92
2022/03/21 02:26:12;;;;;;;13.23;7.53;;;;;;;1.90;100.00;102215.53;6009878;29;20054;-92
2022/03/21 02:29:16;;;;;;;12.73;8.55;;;;;;;1.92;100.00;102210.41;5996885;29;20059;-92
2022/03/21 02:32:18;;;;;;;13.40;8.07;;;;;;;1.91;100.00;102222.34;5999340;29;20057;-92
2022/03/21 02:35:21;;;;;;;12.68;7.72;;;;;;;1.88;100.00;102221.53;6009467;29;20121;-92
2022/03/21 02:38:25;;;;;;;13.52;7.50;;;;;;;1.90;100.00;102224.91;6002570;29;20053;-92
2022/03/21 02:41:27;;;;;;;12.70;7.82;;;;;;;1.88;100.00;102217.25;6000479;29;20054;-92
2022/03/21 02:44:37;;;;;;;12.23;7.97;;;;;;;1.89;100.00;102220.69;6015861;29;20131;-92
2022/03/21 02:47:39;;;;;;;12.90;8.25;;;;;;;1.89;100.00;102218.13;6014824;29;20513;-92
2022/03/21 02:51:01;;;;;;;13.68;8.05;;;;;;;1.89;100.00;102220.69;6008728;29;20419;-91
2022/03/21 02:54:02;;;;;;;13.85;8.10;;;;;;;1.85;100.00;102231.81;6002503;29;20052;-92
2022/03/21 02:57:04;;;;;;;14.30;7.82;;;;;;;1.84;100.00;102230.97;6024267;29;20081;-92
2022/03/21 03:00:07;;;;;;;13.88;7.95;;;;;;;1.82;100.00;102224.19;6004088;29;20130;-92
2022/03/21 03:03:09;;;;;;;12.10;7.35;;;;;;;1.79;100.00;102225.09;5984085;29;20057;-92
2022/03/21 03:06:11;;;;;;;13.10;8.23;;;;;;;1.81;100.00;102222.50;5994860;29;20054;-92
2022/03/21 03:09:14;;;;;;;14.00;8.70;;;;;;;1.79;100.00;102231.88;6006006;29;20495;-92
2022/03/21 03:12:15;;;;;;;13.98;7.70;;;;;;;1.78;100.00;102230.19;6013093;29;20046;-92
2022/03/21 03:15:17;;;;;;;13.63;8.15;;;;;;;1.72;100.00;102226.03;5998343;29;20057;-92
2022/03/21 03:18:19;;;;;;;15.15;7.97;;;;;;;1.70;100.00;102232.88;6001271;29;20054;-92
2022/03/21 03:21:24;;;;;;;13.10;8.05;;;;;;;1.64;100.00;102236.38;6013284;29;20512;-92
2022/03/21 03:24:27;;;;;;;12.20;7.68;;;;;;;1.61;100.00;102227.88;6004823;29;20050;-92
2022/03/21 03:27:30;;;;;;;11.60;7.75;;;;;;;1.59;100.00;102234.72;6009416;29;20102;-92
2022/03/21 03:30:35;;;;;;;13.63;7.68;;;;;;;1.58;100.00;102226.22;6002570;29;20072;-91
2022/03/21 03:33:37;;;;;;;13.20;7.65;;;;;;;1.62;100.00;102234.69;6018169;29;20050;-91
2022/03/21 03:36:39;;;;;;;14.65;8.35;;;;;;;1.65;100.00;102234.66;6012886;29;20056;-92
2022/03/21 03:39:41;;;;;;;14.27;7.97;;;;;;;1.63;100.00;102237.22;5992383;29;20051;-92
2022/03/21 03:42:43;;;;;;;18.02;8.77;;;;;;;1.68;100.00;102244.81;6010506;29;20052;-92
2022/03/21 03:45:45;;;;;;;13.02;8.15;;;;;;;1.65;100.00;102239.75;5991409;29;20050;-92
2022/03/21 03:48:47;;;;;;;13.57;8.57;;;;;;;1.68;100.00;102237.97;6013945;29;20073;-92
2022/03/21 03:51:50;;;;;;;13.82;8.57;;;;;;;1.64;100.00;102240.59;6014079;29;20041;-91
2022/03/21 03:54:51;;;;;;;12.70;7.82;;;;;;;1.61;100.00;102244.03;6004887;29;20053;-92
2022/03/21 03:57:53;;;;;;;14.00;7.82;;;;;;;1.61;100.00;102251.69;6001502;29;20042;-92
2022/03/21 04:00:55;;;;;;;14.35;8.63;;;;;;;1.64;100.00;102248.25;6026190;29;20056;-91
2022/03/21 04:03:59;;;;;;;14.63;8.70;;;;;;;1.63;100.00;102257.63;6025688;29;20115;-92
2022/03/21 04:07:01;;;;;;;16.40;9.40;;;;;;;1.73;100.00;102253.25;6025493;29;20110;-92
2022/03/21 04:10:03;;;;;;;13.57;8.77;;;;;;;1.74;100.00;102254.94;6020006;29;20041;-91
2022/03/21 04:13:05;;;;;;;14.25;8.77;;;;;;;1.80;100.00;102259.13;5995647;29;20410;-92
2022/03/21 04:16:08;;;;;;;13.05;8.25;;;;;;;1.87;100.00;102261.56;6010490;29;20177;-91
2022/03/21 04:19:13;;;;;;;14.07;8.40;;;;;;;1.96;100.00;102262.28;5997394;29;20057;-91
2022/03/21 04:22:15;;;;;;;15.63;8.95;;;;;;;2.03;100.00;102266.41;6017765;29;20518;-92
2022/03/21 04:25:17;;;;;;;15.82;8.98;;;;;;;2.07;100.00;102266.34;5992790;29;20042;-92
2022/03/21 04:28:19;;;;;;;13.32;8.77;;;;;;;2.12;100.00;102267.13;6044680;29;20061;-92
2022/03/21 04:31:20;;;;;;;14.68;8.80;;;;;;;2.15;100.00;102274.72;6014051;29;20050;-92
2022/03/21 04:34:22;;;;;;;13.30;8.38;;;;;;;2.17;100.00;102267.06;6020749;29;20494;-91
2022/03/21 04:37:25;;;;;;;15.85;8.98;;;;;;;2.19;100.00;102267.88;5993713;29;20057;-91
2022/03/21 04:40:26;;;;;;;16.67;8.73;;;;;;;2.25;100.00;102282.25;6025718;29;20046;-92
2022/03/21 04:43:28;;;;;;;14.73;8.75;;;;;;;2.29;100.00;102278.81;5996882;29;20042;-92
2022/03/21 04:46:30;;;;;;;15.65;8.80;;;;;;;2.37;100.00;102274.41;5988353;29;20077;-92
2022/03/21 04:49:32;;;;;;;14.05;8.05;;;;;;;2.37;100.00;102276.97;6006922;29;20429;-92
2022/03/21 04:52:35;;;;;;;15.05;8.70;;;;;;;2.36;100.00;102271.00;6014383;29;20062;-91
2022/03/21 04:55:40;;;;;;;14.10;8.45;;;;;;;2.48;100.00;102279.31;6005115;29;20049;-91
2022/03/21 04:58:42;;;;;;;13.98;8.88;;;;;;;2.48;100.00;102284.44;6011556;29;20050;-92
2022/03/21 05:01:44;;;;;;;14.45;8.07;;;;;;;2.46;100.00;102289.59;6011244;29;20202;-91
2022/03/21 05:04:46;;;;;;;15.13;9.45;;;;;;;2.42;100.00;102284.56;5992670;29;20049;-91
2022/03/21 05:07:52;;;;;;;16.58;9.95;;;;;;;2.49;100.00;102291.25;5972635;29;20054;-91
2022/03/21 05:10:56;;;;;;;14.75;8.73;;;;;;;2.48;100.00;102285.28;6000469;29;20056;-91
2022/03/21 05:13:58;;;;;;;13.10;8.30;;;;;;;2.53;100.00;102288.59;5991303;29;20527;-92
2022/03/21 05:17:02;;;;;;;15.38;8.63;;;;;;;2.57;100.00;102294.50;5989976;29;20056;-91
2022/03/21 05:20:15;;;;;;;16.80;9.90;;;;;;;2.59;100.00;102291.06;5983220;29;20048;-91
2022/03/21 05:36:38;;;;;;;16.42;9.30;;;;;;;2.74;100.00;102307.00;5998869;29;20054;-91
2022/03/21 05:40:31;;;;;;;13.80;8.68;;;;;;;2.73;100.00;102306.19;6023647;29;20418;-92
2022/03/21 05:43:03;;;;;;;16.98;9.23;;;;;;;2.69;100.00;102298.59;6013251;29;20042;-92
2022/03/21 05:46:05;;;;;;;17.30;9.95;;;;;;;2.67;100.00;102302.88;6004055;29;20046;-92
2022/03/21 05:49:07;;;;;;;15.15;9.20;;;;;;;2.70;100.00;102301.09;5985832;29;20047;-91
2022/03/21 05:52:09;;;;;;;15.98;9.63;;;;;;;2.66;100.00;102296.06;6014861;29;20049;-92
2022/03/21 05:55:10;;;;;;;16.80;9.07;;;;;;;2.63;100.00;102298.66;5976059;29;20050;-92
2022/03/21 05:58:12;;;;;;;14.35;8.75;;;;;;;2.59;100.00;102297.88;6006863;29;20202;-92
2022/03/21 06:01:18;;;;;;;15.82;9.68;;;;;;;2.63;100.00;102299.50;6011799;29;20124;-91
2022/03/21 06:04:23;;;;;;;16.23;9.52;;;;;;;2.66;100.00;102307.16;6013949;29;20052;-91
2022/03/21 06:07:25;;;;;;;19.20;10.45;;;;;;;2.58;100.00;102303.84;6017728;29;20511;-92
2022/03/21 06:10:27;;;;;;;15.60;9.07;;;;;;;2.52;100.00;102306.53;6016615;29;20537;-91
2022/03/21 06:13:31;;;;;;;14.75;9.32;;;;;;;2.53;100.00;102319.25;6018493;29;20046;-92
2022/03/21 06:16:33;;;;;;;20.25;10.45;;;;;;;2.51;100.00;102320.16;6018561;29;20050;-92
2022/03/21 06:19:35;;;;;;;15.40;9.57;;;;;;;2.54;100.00;102322.69;6002809;29;20046;-92
2022/03/21 06:22:38;;;;;;;18.45;10.00;;;;;;;2.54;100.00;102320.13;6010982;29;20050;-92
2022/03/21 06:25:40;;;;;;;15.73;9.73;;;;;;;2.57;100.00;102323.47;6018307;29;20052;-92
2022/03/21 06:28:42;;;;;;;19.83;10.38;;;;;;;2.55;100.00;102320.09;5996188;29;20038;-91
2022/03/21 06:31:44;;;;;;;19.35;9.70;;;;;;;2.57;100.00;102315.81;5989522;29;20042;-92
2022/03/21 06:34:47;;;;;;;15.20;9.90;;;;;;;2.56;100.00;102321.78;6013571;29;20060;-91
2022/03/21 06:37:49;;;;;;;16.17;10.02;;;;;;;2.60;100.00;102322.56;6002128;29;20074;-92
2022/03/21 06:40:53;;;;;;;15.32;10.13;;;;;;;2.65;100.00;102328.44;6014183;29;20074;-92
2022/03/21 06:43:55;;;;;;;18.17;9.93;;;;;;;2.68;100.00;102325.84;6014056;29;20091;-92
2022/03/21 06:46:58;;;;;;;16.00;9.90;;;;;;;2.74;100.00;102333.41;6004686;29;20073;-92
2022/03/21 06:50:00;;;;;;;17.70;9.88;;;;;;;2.83;100.00;102334.97;6013598;29;20403;-92
2022/03/21 06:53:02;;;;;;;17.15;10.30;;;;;;;2.94;100.00;102339.91;6004997;29;20109;-92
2022/03/21 06:56:04;;;;;;;15.55;9.63;;;;;;;3.05;100.00;102335.41;5997457;29;20336;-92
2022/03/21 06:59:07;;;;;;;16.33;9.80;;;;;;;3.12;100.00;102338.72;5981805;29;20412;-92
2022/03/21 07:02:09;;;;;;;18.70;10.95;;;;;;;3.15;100.00;102339.50;5997811;29;20045;-92
2022/03/21 07:05:12;;;;;;;20.45;10.38;;;;;;;3.14;100.00;102342.94;6014807;29;20473;-92
2022/03/21 07:08:17;;;;;;;16.60;9.80;;;;;;;3.15;100.00;102343.78;5998047;29;20058;-91
2022/03/21 07:11:20;;;;;;;18.35;10.95;;;;;;;3.14;100.00;102350.59;5998653;29;20057;-92
2022/03/21 07:14:22;;;;;;;21.27;10.52;;;;;;;3.16;100.00;102356.56;5973945;29;20058;-92
2022/03/21 07:17:25;;;;;;;17.98;10.27;;;;;;;3.17;100.00;102348.00;5999237;29;20045;-92
2022/03/21 07:20:27;;;;;;;16.70;9.88;;;;;;;3.24;100.00;102347.00;6029905;29;20445;-92
2022/03/21 07:23:30;;;;;;;16.45;10.30;;;;;;;3.31;100.00;102345.19;6014789;29;20049;-91
2022/03/21 07:26:32;;;;;;;18.63;10.57;;;;;;;3.40;100.00;102344.16;6024857;29;20049;-92
2022/03/21 07:29:37;;;;;;;17.23;9.60;;;;;;;3.48;100.00;102356.78;6008907;29;20118;-92
2022/03/21 07:32:40;;;;;;;28.30;11.65;;;;;;;3.53;100.00;102355.84;5994693;29;20053;-91
2022/03/21 07:35:43;;;;;;;18.10;10.52;;;;;;;3.60;100.00;102366.78;5993228;29;20519;-92
2022/03/21 07:38:45;;;;;;;20.15;11.23;;;;;;;3.66;100.00;102372.63;6020241;29;20046;-92
2022/03/21 07:41:59;;;;;;;16.73;10.90;;;;;;;3.74;100.00;102376.75;6012371;29;20053;-92
2022/03/21 07:48:27;;;;;;;17.20;10.77;;;;;;;3.95;96.60;102378.03;6010585;29;20045;-91
2022/03/21 07:51:30;;;;;;;18.63;11.13;;;;;;;4.02;96.85;102380.41;6006343;29;20525;-92
2022/03/21 07:54:34;;;;;;;18.50;11.27;;;;;;;4.14;94.51;102378.47;6012865;29;20045;-92
2022/03/21 07:57:37;;;;;;;17.05;10.75;;;;;;;4.24;95.40;102374.81;6010430;29;20197;-91
2022/03/21 08:00:43;;;;;;;21.00;10.65;;;;;;;4.37;93.06;102371.09;6009032;29;20794;-92
2022/03/21 08:03:49;;;;;;;17.00;11.35;;;;;;;4.48;93.16;102371.69;5997638;29;20061;-92
2022/03/21 08:07:00;;;;;;;15.75;10.20;;;;;;;4.58;90.73;102366.34;6012710;29;20057;-91
2022/03/21 08:10:03;;;;;;;20.17;11.45;;;;;;;4.68;88.73;102368.66;6013358;29;20136;-92
2022/03/21 08:13:22;;;;;;;18.45;11.85;;;;;;;4.82;87.49;102370.88;6013695;29;20058;-91
2022/03/21 08:16:25;;;;;;;16.73;11.00;;;;;;;4.89;86.47;102374.13;6011462;29;20045;-92
2022/03/21 08:19:32;;;;;;;19.02;11.25;;;;;;;5.00;85.53;102371.31;5994534;29;20046;-92
2022/03/21 08:22:46;;;;;;;19.05;10.90;;;;;;;5.10;86.07;102372.75;6000399;29;20065;-92
2022/03/21 08:25:50;;;;;;;16.95;11.32;;;;;;;5.25;84.88;102377.47;5996650;29;20066;-92
2022/03/21 08:28:52;;;;;;;21.40;11.32;;;;;;;5.28;84.81;102373.97;6002120;29;20050;-92
2022/03/21 08:31:55;;;;;;;19.23;11.38;;;;;;;5.38;83.35;102375.41;6000387;29;20077;-92
2022/03/21 08:34:57;;;;;;;19.27;11.52;;;;;;;5.42;81.44;102376.19;6021079;29;20045;-92
2022/03/21 08:38:00;;;;;;;20.48;11.50;;;;;;;5.52;80.14;102380.16;6002383;29;20081;-92
2022/03/21 08:41:03;;;;;;;20.20;11.32;;;;;;;5.65;80.05;102371.22;6014905;29;20050;-92
2022/03/21 08:44:06;;;;;;;18.73;11.60;;;;;;;5.82;78.64;102370.75;6025979;29;20480;-91
2022/03/21 08:47:08;;;;;;;16.27;10.48;;;;;;;5.91;76.83;102374.75;5993359;29;20046;-92
2022/03/21 08:50:11;;;;;;;19.83;11.85;;;;;;;5.99;78.53;102372.84;6001258;29;20050;-92
2022/03/21 08:53:13;;;;;;;16.25;10.88;;;;;;;6.03;76.10;102370.13;5984897;29;20054;-92
2022/03/21 08:56:23;;;;;;;18.40;10.75;;;;;;;6.16;74.45;102362.91;5991117;29;20065;-92
2022/03/21 08:59:28;;;;;;;18.20;11.52;;;;;;;6.32;75.91;102360.69;5993794;29;20050;-92
2022/03/21 09:02:32;;;;;;;18.83;11.55;;;;;;;6.42;74.57;102361.22;5979931;29;20325;-92
2022/03/21 09:05:37;;;;;;;17.48;11.40;;;;;;;6.50;74.00;102366.13;5974714;29;20066;-92
2022/03/21 09:08:43;;;;;;;16.23;10.73;;;;;;;6.64;71.87;102371.66;6015079;29;20046;-92
2022/03/21 09:11:45;;;;;;;16.38;11.63;;;;;;;6.75;71.14;102374.72;6015183;29;20046;-91
2022/03/21 09:14:47;;;;;;;15.65;11.52;;;;;;;6.81;71.04;102373.69;6010129;29;20046;-92
2022/03/21 09:17:49;;;;;;;17.70;11.73;;;;;;;6.98;70.08;102371.41;5996456;29;20039;-92
2022/03/21 09:20:51;;;;;;;19.02;11.32;;;;;;;7.04;70.59;102375.47;6006822;29;20039;-92
2022/03/21 09:23:58;;;;;;;19.35;11.45;;;;;;;7.10;69.57;102368.41;5990889;29;20160;-92
2022/03/21 09:27:00;;;;;;;19.08;11.57;;;;;;;7.21;68.78;102364.59;5998126;29;20076;-91
2022/03/21 09:30:02;;;;;;;21.33;12.35;;;;;;;7.33;69.70;102369.31;5987325;29;20054;-91
2022/03/21 09:33:04;;;;;;;19.58;12.18;;;;;;;7.52;68.76;102370.31;5973052;29;20053;-92
2022/03/21 09:36:07;;;;;;;18.05;12.02;;;;;;;7.60;67.83;102380.34;5997777;29;20203;-92
2022/03/21 09:39:12;;;;;;;20.63;12.60;;;;;;;7.67;67.17;102376.63;6000373;29;20718;-91
2022/03/21 09:42:14;;;;;;;18.02;11.20;;;;;;;7.86;65.26;102378.56;5990244;29;20117;-92
2022/03/21 09:45:16;;;;;;;21.85;12.93;;;;;;;7.92;65.46;102373.16;5998580;29;20080;-92
2022/03/21 09:48:19;;;;;;;19.10;11.73;;;;;;;8.01;66.91;102372.81;5988306;29;20070;-91
2022/03/21 09:51:23;;;;;;;18.65;12.13;;;;;;;8.15;66.82;102369.72;6015118;29;20045;-91
2022/03/21 09:54:27;;;;;;;18.80;12.15;;;;;;;8.28;64.01;102370.91;6001080;29;20148;-91
2022/03/21 09:57:30;;;;;;;17.90;12.38;;;;;;;8.38;64.65;102359.31;6006565;29;20708;-91
2022/03/21 10:00:38;;;;;;;20.65;12.93;;;;;;;8.47;63.60;102359.84;5986515;29;20045;-91
2022/03/21 10:03:42;;;;;;;19.50;12.15;;;;;;;8.56;62.42;102355.16;5996658;29;20056;-91
2022/03/21 10:06:45;;;;;;;20.63;11.95;;;;;;;8.72;64.58;102345.06;5967480;29;20045;-92
2022/03/21 10:10:06;;;;;;;18.63;12.00;;;;;;;8.84;61.54;102341.09;6000019;29;20055;-92
2022/03/21 10:13:10;;;;;;;20.63;11.82;;;;;;;8.97;61.29;102346.59;5999946;29;20061;-92
2022/03/21 10:16:21;;;;;;;18.02;12.05;;;;;;;9.08;61.18;102340.97;6007145;29;20053;-92
2022/03/21 10:19:23;;;;;;;;;;;;;;;9.16;59.23;102344.88;5979458;29;20054;-92
2022/03/21 10:22:43;;;;;;;20.70;11.95;;;;;;;9.28;60.14;102343.50;6001413;29;20410;-91
2022/03/21 10:25:47;;;;;;;18.38;11.90;;;;;;;9.43;59.68;102352.31;5999933;29;20046;-92
2022/03/21 10:28:49;;;;;;;20.52;11.95;;;;;;;9.53;57.59;102342.41;5998844;29;20053;-91
2022/03/21 10:31:52;;;;;;;18.63;12.13;;;;;;;9.66;57.23;102344.38;5983262;29;20045;-92
2022/03/21 10:35:07;;;;;;;20.65;12.88;;;;;;;9.77;57.98;102335.28;5991637;29;20130;-92
2022/03/21 10:38:09;;;;;;;19.00;12.38;;;;;;;9.76;55.72;102339.59;6011014;29;20046;-92
2022/03/21 10:41:11;;;;;;;17.65;11.82;;;;;;;9.78;56.08;102334.38;5990309;29;20505;-92
2022/03/21 10:44:16;;;;;;;18.52;12.23;;;;;;;9.86;57.10;102337.41;6011043;29;20085;-92
2022/03/21 10:47:17;;;;;;;18.40;12.57;;;;;;;9.93;57.12;102334.47;5978589;29;20053;-91
2022/03/21 10:50:27;;;;;;;18.73;12.02;;;;;;;10.14;55.13;102324.03;5995645;29;20141;-92
2022/03/21 10:53:38;;;;;;;17.83;12.17;;;;;;;10.29;56.80;102332.84;6010639;29;20049;-92
2022/03/21 10:56:40;;;;;;;;;;;;;;;10.50;54.98;102324.00;5985792;29;20153;-92
2022/03/21 10:59:42;;;;;;;20.00;11.63;;;;;;;10.72;54.62;102321.16;6000930;29;19928;-92
2022/03/21 11:02:56;;;;;;;18.88;12.13;;;;;;;10.84;54.18;102334.44;6010361;29;20053;-92
2022/03/21 11:05:58;;;;;;;23.65;12.95;;;;;;;10.91;54.41;102318.50;6008259;29;20056;-92
2022/03/21 11:09:01;;;;;;;17.85;11.93;;;;;;;11.08;53.60;102312.44;6000807;29;20072;-91
2022/03/21 11:12:04;;;;;;;18.50;12.63;;;;;;;11.19;53.79;102317.03;5993816;29;20042;-92
2022/03/21 11:15:07;;;;;;;20.17;12.88;;;;;;;11.36;52.84;102322.16;6028741;29;20063;-91
2022/03/21 11:18:09;;;;;;;18.98;12.55;;;;;;;11.41;52.08;102314.97;6030331;29;20136;-91
2022/03/21 11:21:13;;;;;;;20.42;12.35;;;;;;;11.51;52.65;102319.69;6003225;29;20131;-92
2022/03/21 11:24:15;;;;;;;20.70;13.43;;;;;;;11.60;52.65;102322.63;6004747;29;20038;-92
2022/03/21 11:27:35;;;;;;;18.83;13.05;;;;;;;11.76;50.14;102316.59;5991093;29;20057;-92
2022/03/21 11:30:49;;;;;;;19.38;13.35;;;;;;;11.87;49.75;102313.41;5983906;29;20125;-92
2022/03/21 11:34:25;;;;;;;19.65;13.57;;;;;;;12.06;50.41;102320.09;5984856;29;20518;-92
2022/03/21 11:37:32;;;;;;;25.05;13.35;;;;;;;12.15;48.11;102313.53;5985309;29;20549;-91
2022/03/21 11:40:40;;;;;;;19.65;13.00;;;;;;;12.25;48.69;102314.69;6000088;29;20061;-91
2022/03/21 11:43:44;;;;;;;20.35;13.70;;;;;;;12.24;49.59;102315.59;6004535;29;20401;-91
2022/03/21 11:46:47;;;;;;;18.92;13.52;;;;;;;12.25;48.99;102312.09;5988497;29;20415;-92
2022/03/21 11:49:51;;;;;;;20.10;13.73;;;;;;;12.31;51.74;102312.66;6005638;29;20506;-92
2022/03/21 11:53:37;;;;;;;23.30;13.55;;;;;;;12.43;48.67;102306.75;6004162;29;20053;-91
2022/03/21 11:56:43;;;;;;;;;;;;;;;12.62;48.21;102301.31;5941105;30;20138;-92
2022/03/21 11:59:49;;;;;;;18.50;12.27;;;;;;;12.66;48.38;102305.41;5946058;29;19932;-92
2022/03/21 12:02:51;;;;;;;22.50;12.70;;;;;;;12.66;48.85;102290.66;5961030;29;20508;-92
2022/03/21 12:05:53;;;;;;;19.65;13.35;;;;;;;12.82;48.70;102294.91;5939887;30;21359;-92
2022/03/21 12:09:01;;;;;;;18.23;13.65;;;;;;;12.82;48.23;102297.50;5952687;29;20062;-91
2022/03/21 12:12:04;;;;;;;21.92;13.90;;;;;;;12.87;49.02;102292.91;5921498;30;20560;-92
2022/03/21 12:15:31;;;;;;;19.13;14.18;;;;;;;13.01;49.45;102290.28;5925392;30;20043;-91
2022/03/21 12:18:59;;;;;;;21.90;14.02;;;;;;;13.14;47.48;102292.97;5940084;30;20070;-91
2022/03/21 12:22:28;;;;;;;17.70;13.13;;;;;;;13.24;49.15;102280.22;5944759;29;20059;-92
2022/03/21 12:25:30;;;;;;;19.50;12.80;;;;;;;13.33;47.91;102279.69;5941039;30;20063;-93
2022/03/21 12:32:26;;;;;;;19.83;13.05;;;;;;;13.49;47.27;102272.63;5912682;29;20483;-94
2022/03/21 12:35:42;;;;;;;20.25;14.05;;;;;;;13.59;46.42;102280.69;5980756;29;20058;-93
2022/03/21 12:38:44;;;;;;;23.23;15.25;;;;;;;13.63;48.27;102276.91;5962573;29;20091;-93
2022/03/21 12:41:46;;;;;;;19.45;14.90;;;;;;;13.76;46.14;102276.97;5959584;29;20128;-94
2022/03/21 12:44:48;;;;;;;22.83;15.55;;;;;;;13.85;47.16;102279.00;5979431;29;20050;-93
2022/03/21 12:47:51;;;;;;;22.30;15.60;;;;;;;13.92;44.23;102271.63;5952968;29;20677;-93
2022/03/21 12:50:52;;;;;;;22.25;15.80;;;;;;;13.97;45.54;102270.38;5967091;29;20046;-93
2022/03/21 12:53:56;;;;;;;25.88;16.00;;;;;;;14.04;44.91;102272.59;5953528;29;20695;-93
2022/03/21 12:57:07;;;;;;;23.75;16.25;;;;;;;14.09;46.27;102267.91;5967187;29;20053;-94
2022/03/21 13:00:17;;;;;;;22.75;16.45;;;;;;;14.22;45.19;102267.00;5965584;29;20085;-93
2022/03/21 13:03:20;;;;;;;26.10;15.83;;;;;;;14.32;44.61;102269.00;5963133;29;20058;-93
2022/03/21 13:13:04;;;;;;;22.80;14.65;;;;;;;14.55;43.67;102259.66;5994120;29;20050;-93
2022/03/21 13:16:08;;;;;;;22.30;15.50;;;;;;;14.64;44.45;102257.25;5984735;29;20507;-93
2022/03/21 13:19:19;;;;;;;27.88;15.50;;;;;;;14.70;45.09;102258.59;5995228;29;20155;-93
2022/03/21 13:22:21;;;;;;;23.75;15.00;;;;;;;14.76;44.34;102252.16;5993646;29;20086;-93
2022/03/21 13:25:35;;;;;;;22.88;14.48;;;;;;;14.81;43.37;102248.28;5990949;29;20085;-93
2022/03/21 13:28:39;;;;;;;19.95;14.45;;;;;;;14.85;43.68;102252.31;5992827;29;20439;-93
2022/03/21 13:31:42;;;;;;;22.80;15.40;;;;;;;14.96;44.58;102254.19;5992050;29;20121;-93
2022/03/21 13:34:51;;;;;;;23.00;15.25;;;;;;;15.03;43.88;102249.34;5983402;29;20073;-93
2022/03/21 13:38:01;;;;;;;20.92;14.55;;;;;;;15.09;42.56;102248.94;5986451;29;20504;-93
2022/03/21 13:41:18;;;;;;;19.98;13.73;;;;;;;15.19;41.67;102243.91;5990359;29;20068;-93
2022/03/21 13:44:22;;;;;;;23.30;14.68;;;;;;;15.28;42.45;102243.28;5990386;29;20057;-93
2022/03/21 13:47:24;;;;;;;19.27;14.20;;;;;;;15.35;42.30;102236.63;5987676;29;20047;-94
2022/03/21 13:50:38;;;;;;;19.75;14.18;;;;;;;15.40;42.60;102236.31;5985884;29;20059;-93
2022/03/21 13:53:40;;;;;;;21.95;14.88;;;;;;;15.49;41.25;102246.09;5984025;29;20065;-93
2022/03/21 13:56:44;;;;;;;24.58;15.32;;;;;;;15.58;43.49;102235.00;5988389;29;20042;-93
2022/03/21 14:00:10;;;;;;;22.73;14.40;;;;;;;15.61;42.57;102234.78;5973859;29;20054;-93
2022/03/21 14:03:36;;;;;;;22.48;13.95;;;;;;;15.68;42.99;102229.94;5991664;29;20049;-93
2022/03/21 14:07:03;;;;;;;21.25;14.70;;;;;;;15.73;40.69;102238.28;5996818;29;20065;-93
2022/03/21 14:10:24;;;;;;;21.65;15.30;;;;;;;15.80;41.06;102217.78;5991168;29;20085;-93
2022/03/21 14:13:27;;;;;;;22.42;14.02;;;;;;;15.82;42.74;102226.31;5995874;29;20122;-93
2022/03/21 14:16:31;;;;;;;21.88;14.82;;;;;;;15.84;41.97;102220.03;5987516;29;20077;-93
2022/03/21 14:19:36;;;;;;;24.45;15.20;;;;;;;15.85;40.02;102226.94;5974297;29;20512;-93
2022/03/21 14:22:37;;;;;;;23.13;15.35;;;;;;;15.83;42.21;102228.00;5968744;29;20492;-93
2022/03/21 14:29:01;;;;;;;22.38;15.80;;;;;;;15.92;42.44;102222.94;5983610;29;20575;-93
2022/03/21 14:32:04;;;;;;;22.90;14.35;;;;;;;15.97;41.30;102219.97;5986706;29;20061;-94
2022/03/21 14:35:07;;;;;;;20.10;14.20;;;;;;;16.00;40.71;102221.50;5983969;29;20046;-93
2022/03/21 14:38:09;;;;;;;20.20;14.43;;;;;;;15.99;40.33;102222.47;5988713;29;20066;-93
2022/03/21 14:41:19;;;;;;;22.15;15.07;;;;;;;15.94;40.35;102222.81;5970265;29;20058;-93
2022/03/21 14:44:23;;;;;;;20.80;14.45;;;;;;;15.87;40.93;102224.22;5989908;29;20050;-93